Time;durP1;ratioP1;P1;durP2;ratioP2;P2;SDS_P1;SDS_P2;PMS_P1;PMS_P2;Temp;Humidity;BMP_temperature;BMP_pressure;BME280_temperature;BME280_humidity;BME280_pressure;Samples;Min_cycle;Max_cycle;Signal;HPM_P1;HPM_P2
2021/10/24 00:01:22;;;;;;;9.45;5.40;;;10.70;52.10;;;;;;4975868;28;20026;-55
2021/10/24 00:03:48;;;;;;;8.05;5.10;;;10.70;52.20;;;;;;4974214;28;20031;-55
2021/10/24 00:06:14;;;;;;;7.88;5.65;;;10.70;52.10;;;;;;4974236;28;20027;-53
2021/10/24 00:08:39;;;;;;;8.10;5.43;;;10.60;52.10;;;;;;4974602;28;20436;-54
2021/10/24 00:11:06;;;;;;;7.93;4.95;;;10.60;52.10;;;;;;4979374;28;20089;-53
2021/10/24 00:13:32;;;;;;;7.78;5.03;;;10.70;52.30;;;;;;4993852;28;20050;-54
2021/10/24 00:15:59;;;;;;;8.98;5.10;;;10.60;52.20;;;;;;4979717;28;20035;-55
2021/10/24 00:18:26;;;;;;;8.30;5.82;;;10.70;52.30;;;;;;4974410;28;20073;-52
2021/10/24 00:20:53;;;;;;;7.88;5.20;;;10.70;52.40;;;;;;4974376;28;20042;-55
2021/10/24 00:23:19;;;;;;;7.97;5.07;;;10.70;52.20;;;;;;4978670;28;20471;-55
2021/10/24 00:25:45;;;;;;;7.88;5.20;;;10.70;52.20;;;;;;4977660;28;20027;-53
2021/10/24 00:28:11;;;;;;;7.03;4.68;;;10.70;52.20;;;;;;4974306;28;20023;-53
2021/10/24 00:30:37;;;;;;;7.72;4.95;;;10.70;52.20;;;;;;4976941;28;20034;-55
2021/10/24 00:33:06;;;;;;;5.80;4.38;;;10.70;52.20;;;;;;4989205;28;20026;-55
2021/10/24 00:35:32;;;;;;;6.93;4.47;;;10.70;52.20;;;;;;4993453;28;20482;-56
2021/10/24 00:37:59;;;;;;;7.18;4.93;;;10.70;52.30;;;;;;4993519;28;20106;-53
2021/10/24 00:40:25;;;;;;;7.57;4.97;;;10.60;52.20;;;;;;4993156;28;20073;-56
2021/10/24 00:42:52;;;;;;;7.68;4.72;;;10.60;52.20;;;;;;4993502;28;20093;-54
2021/10/24 00:45:19;;;;;;;7.65;4.50;;;10.60;52.30;;;;;;4993511;28;20098;-55
2021/10/24 00:47:45;;;;;;;8.27;4.90;;;10.60;52.20;;;;;;4992423;28;20066;-55
2021/10/24 00:50:11;;;;;;;6.72;4.47;;;10.60;52.30;;;;;;4997407;28;20359;-52
2021/10/24 00:52:37;;;;;;;8.05;4.95;;;10.60;52.20;;;;;;4996977;28;20026;-54
2021/10/24 00:55:03;;;;;;;9.30;5.53;;;10.60;52.30;;;;;;4986828;28;20066;-55
2021/10/24 00:57:29;;;;;;;7.00;4.85;;;10.60;52.30;;;;;;4977463;28;20030;-55
2021/10/24 00:59:55;;;;;;;6.80;4.80;;;10.60;52.40;;;;;;4981381;28;20485;-55
2021/10/24 01:02:21;;;;;;;8.82;5.43;;;10.60;52.30;;;;;;4995449;28;20363;-55
2021/10/24 01:04:47;;;;;;;7.40;5.05;;;10.60;52.30;;;;;;4995307;28;20026;-54
2021/10/24 01:07:16;;;;;;;6.93;4.50;;;10.60;52.30;;;;;;4997011;28;20029;-55
2021/10/24 01:09:43;;;;;;;6.97;4.90;;;10.60;52.30;;;;;;4997024;28;20074;-54
2021/10/24 01:12:08;;;;;;;7.15;4.90;;;10.60;52.30;;;;;;4996984;28;20105;-53
2021/10/24 01:14:34;;;;;;;8.02;4.80;;;10.60;52.30;;;;;;4996637;28;20101;-53
2021/10/24 01:17:00;;;;;;;6.25;4.82;;;10.60;52.30;;;;;;4996583;28;20030;-55
2021/10/24 01:19:26;;;;;;;8.98;5.05;;;10.60;53.00;;;;;;4984799;28;20032;-54
2021/10/24 01:21:52;;;;;;;6.22;4.43;;;10.60;52.40;;;;;;4978191;28;20054;-54
2021/10/24 01:24:18;;;;;;;9.20;5.18;;;10.60;52.40;;;;;;4977025;28;20029;-54
2021/10/24 01:26:43;;;;;;;8.70;5.00;;;10.60;52.50;;;;;;4976925;28;20023;-56
2021/10/24 01:29:11;;;;;;;7.13;4.95;;;10.60;52.40;;;;;;4976908;28;20105;-55
2021/10/24 01:31:37;;;;;;;7.90;5.25;;;10.60;52.50;;;;;;4976827;28;20042;-55
2021/10/24 01:34:04;;;;;;;8.38;4.95;;;10.60;52.50;;;;;;4980356;28;20026;-54
2021/10/24 01:36:30;;;;;;;7.78;5.70;;;10.60;53.20;;;;;;4978657;28;20171;-53
2021/10/24 01:38:56;;;;;;;7.15;4.72;;;10.60;52.50;;;;;;4995998;28;20038;-53
2021/10/24 01:41:24;;;;;;;7.60;5.45;;;10.60;52.60;;;;;;4996263;28;20104;-55
2021/10/24 01:43:50;;;;;;;9.35;5.63;;;10.60;52.80;;;;;;4996025;28;20035;-56
2021/10/24 01:46:17;;;;;;;6.75;4.65;;;10.60;52.80;;;;;;4996281;28;20475;-55
2021/10/24 01:48:43;;;;;;;8.35;5.18;;;10.60;52.90;;;;;;4996130;28;20029;-55
2021/10/24 01:51:11;;;;;;;7.30;5.20;;;10.60;53.00;;;;;;4983204;28;20085;-55
2021/10/24 01:53:38;;;;;;;8.68;5.15;;;10.50;53.10;;;;;;4992646;28;20026;-54
2021/10/24 01:56:05;;;;;;;8.10;5.10;;;10.50;53.20;;;;;;4995872;28;20030;-55
2021/10/24 01:58:31;;;;;;;7.75;5.68;;;10.50;53.20;;;;;;4995414;28;20030;-55
2021/10/24 02:00:57;;;;;;;7.05;5.28;;;10.40;53.40;;;;;;4995317;28;20037;-56
2021/10/24 02:03:23;;;;;;;8.07;5.03;;;10.40;53.30;;;;;;4995815;28;20049;-55
2021/10/24 02:05:50;;;;;;;8.32;5.22;;;10.40;53.50;;;;;;4992916;28;20027;-56
2021/10/24 02:08:16;;;;;;;8.63;5.20;;;10.30;53.50;;;;;;4991223;28;20039;-54
2021/10/24 02:10:43;;;;;;;7.07;5.20;;;10.30;53.60;;;;;;4976393;28;20035;-54
2021/10/24 02:13:09;;;;;;;6.38;4.78;;;10.30;53.80;;;;;;4983111;28;20029;-56
2021/10/24 02:15:36;;;;;;;7.07;5.05;;;10.30;53.90;;;;;;4995765;28;20386;-53
2021/10/24 02:18:06;;;;;;;8.38;4.40;;;10.30;53.90;;;;;;4995572;28;20109;-55
2021/10/24 02:20:34;;;;;;;9.32;5.13;;;10.40;54.00;;;;;;4995347;28;20129;-56
2021/10/24 02:23:01;;;;;;;8.00;5.35;;;10.40;54.10;;;;;;4991412;28;20105;-56
2021/10/24 02:25:27;;;;;;;8.43;5.95;;;10.40;54.10;;;;;;4995068;28;20031;-55
2021/10/24 02:27:53;;;;;;;7.93;4.82;;;10.40;54.10;;;;;;4995394;28;20105;-54
2021/10/24 02:30:19;;;;;;;7.57;4.55;;;10.40;54.10;;;;;;4995463;28;20068;-55
2021/10/24 02:32:45;;;;;;;6.60;4.78;;;10.40;54.20;;;;;;4995555;28;20030;-55
2021/10/24 02:35:12;;;;;;;8.52;5.25;;;10.50;54.20;;;;;;4995203;28;20576;-55
2021/10/24 02:37:39;;;;;;;7.05;4.93;;;10.50;54.30;;;;;;4989461;28;20027;-56
2021/10/24 02:40:07;;;;;;;6.35;4.40;;;10.60;54.30;;;;;;4975624;28;20085;-56
2021/10/24 02:42:33;;;;;;;7.32;4.65;;;10.60;54.40;;;;;;4975807;28;20122;-56
2021/10/24 02:44:59;;;;;;;6.00;4.63;;;10.60;54.40;;;;;;4979023;28;20097;-56
2021/10/24 02:47:25;;;;;;;7.20;5.68;;;10.60;55.00;;;;;;4995040;28;20069;-55
2021/10/24 02:49:51;;;;;;;7.68;5.07;;;10.60;54.40;;;;;;4994877;28;20113;-55
2021/10/24 02:52:16;;;;;;;6.70;4.60;;;10.60;54.50;;;;;;4994355;28;20129;-55
2021/10/24 02:54:42;;;;;;;8.25;5.47;;;10.60;54.50;;;;;;4991781;28;20080;-54
2021/10/24 02:57:08;;;;;;;8.23;5.43;;;10.60;54.50;;;;;;4984276;28;20046;-55
2021/10/24 02:59:34;;;;;;;6.47;4.22;;;10.60;54.50;;;;;;4975261;28;20067;-56
2021/10/24 03:02:01;;;;;;;9.52;5.47;;;10.50;54.60;;;;;;4975510;28;20035;-53
2021/10/24 03:04:27;;;;;;;7.68;4.63;;;10.60;55.40;;;;;;4975277;28;20049;-56
2021/10/24 03:06:53;;;;;;;8.68;5.45;;;10.60;54.80;;;;;;4975492;28;20030;-53
2021/10/24 03:09:19;;;;;;;6.63;4.90;;;10.50;54.80;;;;;;4978750;28;20023;-54
2021/10/24 03:11:45;;;;;;;7.65;5.15;;;10.50;54.90;;;;;;4975169;28;20479;-55
2021/10/24 03:14:11;;;;;;;7.75;4.55;;;10.50;54.90;;;;;;4975152;28;20027;-53
2021/10/24 03:16:36;;;;;;;9.15;5.20;;;10.50;54.90;;;;;;4975039;28;20081;-55
2021/10/24 03:19:03;;;;;;;12.57;4.85;;;10.60;55.10;;;;;;4976931;28;20030;-56
2021/10/24 03:21:30;;;;;;;6.82;4.97;;;10.50;55.10;;;;;;4993942;28;20031;-55
2021/10/24 03:23:57;;;;;;;7.13;5.20;;;10.50;55.20;;;;;;4993579;28;20048;-55
2021/10/24 03:26:23;;;;;;;8.77;5.32;;;10.50;55.20;;;;;;4978401;28;20031;-56
2021/10/24 03:28:49;;;;;;;8.35;5.47;;;10.50;55.30;;;;;;4987638;28;20110;-53
2021/10/24 03:31:14;;;;;;;7.00;5.00;;;10.50;55.30;;;;;;4988608;28;20037;-56
2021/10/24 03:33:40;;;;;;;7.22;5.07;;;10.50;55.40;;;;;;4992485;28;20019;-55
2021/10/24 03:36:06;;;;;;;6.70;5.22;;;10.50;55.50;;;;;;4992200;28;20019;-55
2021/10/24 03:38:32;;;;;;;8.50;5.20;;;10.40;55.60;;;;;;4992729;28;20026;-53
2021/10/24 03:40:57;;;;;;;7.55;4.93;;;10.40;55.70;;;;;;4985951;28;20081;-54
2021/10/24 03:43:23;;;;;;;8.63;5.07;;;10.40;56.30;;;;;;4973269;28;20035;-53
2021/10/24 03:45:49;;;;;;;5.72;4.95;;;10.40;55.90;;;;;;4983408;28;20018;-55
2021/10/24 03:48:14;;;;;;;7.47;4.82;;;10.40;56.00;;;;;;4992852;28;20466;-53
2021/10/24 03:50:40;;;;;;;9.32;5.20;;;10.40;56.60;;;;;;4993727;28;20517;-55
2021/10/24 03:53:06;;;;;;;7.28;4.82;;;10.40;56.00;;;;;;4994024;28;20073;-56
2021/10/24 03:55:31;;;;;;;8.02;5.45;;;10.40;56.10;;;;;;4993460;28;20030;-55
2021/10/24 03:57:57;;;;;;;8.18;5.57;;;10.40;56.20;;;;;;4977985;28;20361;-55
2021/10/24 04:00:23;;;;;;;6.05;4.35;;;10.40;56.20;;;;;;4978816;28;20038;-56
2021/10/24 04:02:57;;;;;;;6.95;4.80;;;10.40;56.20;;;;;;4993697;28;20165;-56
2021/10/24 04:05:24;;;;;;;8.73;5.18;;;10.50;56.20;;;;;;4982835;28;20034;-56
2021/10/24 04:07:50;;;;;;;8.02;4.97;;;10.50;56.20;;;;;;4957214;28;20105;-53
2021/10/24 04:10:18;;;;;;;7.22;4.57;;;10.50;56.20;;;;;;4974518;28;20031;-56
2021/10/24 04:12:45;;;;;;;5.88;4.22;;;10.50;56.10;;;;;;4977799;28;20449;-56
2021/10/24 04:15:11;;;;;;;6.07;4.88;;;10.50;56.20;;;;;;4974269;28;20027;-56
2021/10/24 04:17:37;;;;;;;8.75;5.18;;;10.50;56.20;;;;;;4974204;28;20026;-54
2021/10/24 04:20:07;;;;;;;6.25;4.68;;;10.50;56.20;;;;;;4974315;28;20030;-55
2021/10/24 04:22:33;;;;;;;9.07;5.53;;;10.50;56.20;;;;;;4985720;28;20101;-55
2021/10/24 04:24:59;;;;;;;6.72;4.75;;;10.50;56.20;;;;;;4982091;28;20050;-56
2021/10/24 04:27:24;;;;;;;8.30;4.78;;;10.60;56.20;;;;;;4979065;28;20548;-56
2021/10/24 04:29:51;;;;;;;6.32;4.32;;;10.60;56.20;;;;;;4980635;28;20037;-55
2021/10/24 04:32:17;;;;;;;5.82;4.20;;;10.60;56.30;;;;;;4978270;28;20038;-56
2021/10/24 04:34:42;;;;;;;7.35;4.85;;;10.60;56.30;;;;;;4977979;28;20487;-55
2021/10/24 04:37:08;;;;;;;7.10;4.53;;;10.60;56.30;;;;;;4981106;28;20021;-54
2021/10/24 04:39:34;;;;;;;8.40;4.85;;;10.60;56.20;;;;;;4996634;28;20447;-55
2021/10/24 04:42:00;;;;;;;7.57;5.15;;;10.70;56.20;;;;;;4997338;28;20081;-55
2021/10/24 04:44:25;;;;;;;8.60;5.07;;;10.70;56.30;;;;;;4988223;28;20475;-56
2021/10/24 04:46:51;;;;;;;8.60;5.47;;;10.70;56.30;;;;;;4996020;28;20534;-55
2021/10/24 04:49:17;;;;;;;7.70;4.53;;;10.70;56.30;;;;;;4997203;28;20041;-55
2021/10/24 04:51:42;;;;;;;7.22;5.07;;;10.70;56.30;;;;;;4996617;28;20022;-55
2021/10/24 04:54:08;;;;;;;8.35;5.38;;;10.70;56.30;;;;;;4989843;28;20138;-56
2021/10/24 04:56:34;;;;;;;7.28;4.80;;;10.70;56.30;;;;;;4977620;28;20030;-56
2021/10/24 04:58:59;;;;;;;8.20;4.90;;;10.70;56.30;;;;;;4994152;28;20033;-54
2021/10/24 05:01:25;;;;;;;7.97;5.82;;;10.80;56.90;;;;;;4980143;28;20026;-54
2021/10/24 05:03:51;;;;;;;7.30;5.80;;;10.80;56.40;;;;;;4977586;28;20031;-55
2021/10/24 05:06:17;;;;;;;8.02;5.07;;;10.70;56.30;;;;;;4977719;28;20034;-55
2021/10/24 05:08:43;;;;;;;7.68;5.30;;;10.70;56.40;;;;;;4977416;28;20034;-55
2021/10/24 05:11:08;;;;;;;8.40;4.82;;;10.70;56.50;;;;;;4977266;28;20113;-53
2021/10/24 05:13:34;;;;;;;6.78;5.10;;;10.70;56.30;;;;;;4977273;28;20031;-55
2021/10/24 05:16:00;;;;;;;6.53;4.53;;;10.70;56.50;;;;;;4977389;28;20027;-56
2021/10/24 05:18:25;;;;;;;7.15;5.00;;;10.70;56.60;;;;;;4977192;28;20066;-56
2021/10/24 05:20:51;;;;;;;6.03;4.57;;;10.70;56.60;;;;;;4977340;28;20066;-54
2021/10/24 05:23:16;;;;;;;6.45;4.57;;;10.70;56.70;;;;;;4993580;28;20027;-53
2021/10/24 05:25:42;;;;;;;6.90;4.93;;;10.70;56.70;;;;;;4996496;28;20030;-55
2021/10/24 05:28:08;;;;;;;6.90;4.95;;;10.70;56.70;;;;;;4996482;28;20080;-55
2021/10/24 05:30:34;;;;;;;6.32;4.40;;;10.70;56.70;;;;;;4992685;28;20030;-55
2021/10/24 05:32:59;;;;;;;6.65;4.93;;;10.70;56.70;;;;;;4991859;28;20113;-56
2021/10/24 05:35:25;;;;;;;6.72;4.85;;;10.80;56.90;;;;;;4994225;28;20030;-56
2021/10/24 05:37:51;;;;;;;5.72;4.43;;;10.80;57.00;;;;;;4994743;28;20037;-55
2021/10/24 05:40:17;;;;;;;6.97;4.47;;;10.80;57.10;;;;;;4995559;28;20058;-56
2021/10/24 05:42:43;;;;;;;8.00;5.10;;;10.80;56.90;;;;;;4996185;28;20022;-55
2021/10/24 05:45:09;;;;;;;8.40;5.10;;;10.90;57.00;;;;;;4996083;28;20023;-55
2021/10/24 05:47:35;;;;;;;6.63;4.43;;;10.90;57.00;;;;;;4987642;28;20037;-54
2021/10/24 05:50:00;;;;;;;7.13;4.60;;;10.90;57.00;;;;;;4990938;28;20401;-54
2021/10/24 05:52:26;;;;;;;7.18;5.18;;;10.90;57.10;;;;;;4995195;28;20042;-53
2021/10/24 05:54:52;;;;;;;6.03;4.55;;;10.90;57.10;;;;;;4982876;28;20038;-56
2021/10/24 05:57:18;;;;;;;6.00;4.85;;;11.00;57.10;;;;;;4976079;28;20035;-53
2021/10/24 05:59:44;;;;;;;6.30;4.40;;;11.00;57.10;;;;;;4975962;28;20038;-54
2021/10/24 06:02:10;;;;;;;8.13;5.38;;;11.00;57.10;;;;;;4976777;28;20538;-54
2021/10/24 06:04:38;;;;;;;8.10;4.95;;;11.10;57.10;;;;;;4978386;28;20419;-56
2021/10/24 06:07:05;;;;;;;7.30;4.55;;;11.10;57.20;;;;;;4974707;28;20082;-53
2021/10/24 06:15:16;;;;;;;6.85;4.45;;;11.10;57.20;;;;;;4943223;28;20070;-54
2021/10/24 06:17:43;;;;;;;8.80;5.22;;;11.20;57.30;;;;;;4976058;28;20049;-55
2021/10/24 06:20:10;;;;;;;6.93;5.00;;;11.20;57.30;;;;;;4979280;28;20064;-56
2021/10/24 06:22:37;;;;;;;6.97;5.15;;;11.20;57.30;;;;;;4989300;28;20022;-54
2021/10/24 06:25:03;;;;;;;7.25;5.25;;;11.20;57.50;;;;;;4982139;28;20034;-53
2021/10/24 06:27:29;;;;;;;7.78;4.78;;;11.20;57.50;;;;;;4973937;28;20121;-56
2021/10/24 06:29:55;;;;;;;6.90;4.97;;;11.20;57.60;;;;;;4975891;28;20134;-55
2021/10/24 06:32:21;;;;;;;9.13;5.03;;;11.20;57.60;;;;;;4975787;28;20027;-53
2021/10/24 06:34:46;;;;;;;6.93;4.18;;;11.20;57.80;;;;;;4979378;28;20467;-54
2021/10/24 06:37:17;;;;;;;8.35;4.80;;;11.20;57.90;;;;;;4984108;28;20088;-56
2021/10/24 06:39:43;;;;;;;6.23;4.20;;;11.20;58.00;;;;;;4995074;28;20105;-53
2021/10/24 06:42:09;;;;;;;6.47;4.53;;;11.20;58.00;;;;;;4995105;28;20022;-55
2021/10/24 06:44:34;;;;;;;6.75;4.63;;;11.30;58.20;;;;;;4994640;28;20027;-54
2021/10/24 06:47:00;;;;;;;6.72;4.78;;;11.30;58.30;;;;;;4994960;28;20106;-56
2021/10/24 06:49:26;;;;;;;6.78;4.38;;;11.30;58.30;;;;;;4993732;28;20109;-58
2021/10/24 06:51:51;;;;;;;8.02;4.97;;;11.30;58.40;;;;;;4985979;28;20037;-55
2021/10/24 06:54:17;;;;;;;5.95;4.53;;;11.30;58.40;;;;;;4994524;28;20038;-56
2021/10/24 06:56:43;;;;;;;7.85;5.22;;;11.30;59.10;;;;;;4994733;28;20031;-56
2021/10/24 06:59:08;;;;;;;8.85;5.18;;;11.40;58.50;;;;;;4994513;28;20429;-55
2021/10/24 07:01:34;;;;;;;7.50;4.22;;;11.40;58.50;;;;;;4994719;28;20414;-53
2021/10/24 07:04:01;;;;;;;6.85;4.82;;;11.30;58.50;;;;;;4994669;28;20074;-55
2021/10/24 07:06:27;;;;;;;7.53;4.97;;;11.40;58.70;;;;;;4987011;28;20023;-55
2021/10/24 07:08:53;;;;;;;7.07;5.05;;;11.40;58.70;;;;;;4975410;28;20029;-56
2021/10/24 07:11:18;;;;;;;6.03;4.50;;;11.40;58.90;;;;;;4975019;28;20034;-58
2021/10/24 07:13:44;;;;;;;9.07;4.72;;;11.40;58.90;;;;;;4975148;28;20023;-58
2021/10/24 07:16:11;;;;;;;5.50;4.90;;;11.40;58.90;;;;;;4975044;28;20489;-54
2021/10/24 07:18:36;;;;;;;7.70;4.90;;;11.40;58.90;;;;;;4975025;28;20501;-56
2021/10/24 07:21:02;;;;;;;8.10;4.72;;;11.40;58.90;;;;;;4976552;28;20022;-56
2021/10/24 07:23:27;;;;;;;7.90;5.07;;;11.50;59.00;;;;;;4978249;28;20063;-56
2021/10/24 07:25:53;;;;;;;6.53;5.28;;;11.50;59.10;;;;;;4975243;28;20030;-55
2021/10/24 07:28:19;;;;;;;5.22;4.22;;;11.50;59.10;;;;;;4994575;28;20026;-56
2021/10/24 07:30:44;;;;;;;6.30;4.78;;;11.50;59.10;;;;;;4994466;28;20057;-55
2021/10/24 07:33:10;;;;;;;6.95;4.60;;;11.60;59.30;;;;;;4994197;28;20034;-55
2021/10/24 07:35:36;;;;;;;7.72;4.63;;;11.60;59.20;;;;;;4994356;28;20023;-55
2021/10/24 07:38:05;;;;;;;5.53;4.82;;;11.70;59.20;;;;;;4994356;28;20080;-56
2021/10/24 07:40:33;;;;;;;6.47;4.85;;;11.70;59.20;;;;;;4993872;28;20050;-55
2021/10/24 07:43:00;;;;;;;6.72;5.03;;;11.70;59.20;;;;;;4994123;28;20030;-55
2021/10/24 07:45:26;;;;;;;6.95;5.03;;;11.70;59.20;;;;;;4993351;28;20042;-56
2021/10/24 07:47:52;;;;;;;6.88;4.70;;;11.70;59.20;;;;;;4993991;28;20018;-55
2021/10/24 07:50:17;;;;;;;6.93;4.97;;;11.70;59.30;;;;;;4993916;28;20034;-55
2021/10/24 07:52:43;;;;;;;7.35;4.97;;;11.80;59.30;;;;;;4993160;28;20118;-56
2021/10/24 07:55:09;;;;;;;7.95;4.85;;;11.80;59.20;;;;;;4978402;28;20030;-55
2021/10/24 07:57:35;;;;;;;8.65;4.95;;;11.80;59.20;;;;;;4973865;28;20392;-54
2021/10/24 08:00:02;;;;;;;9.00;5.32;;;11.80;59.30;;;;;;4974310;28;20117;-55
2021/10/24 08:02:28;;;;;;;9.02;6.10;;;11.70;59.30;;;;;;4974568;28;20030;-58
2021/10/24 08:04:53;;;;;;;6.18;5.13;;;11.70;59.10;;;;;;4974572;28;20034;-55
2021/10/24 08:07:19;;;;;;;8.70;5.22;;;11.70;59.20;;;;;;4974403;28;20025;-56
2021/10/24 08:09:45;;;;;;;8.85;5.70;;;11.70;59.40;;;;;;4974350;28;20086;-56
2021/10/24 08:12:11;;;;;;;8.35;5.65;;;11.70;59.50;;;;;;4974274;28;20033;-55
2021/10/24 08:14:37;;;;;;;7.53;5.78;;;11.60;59.50;;;;;;4974519;28;20105;-54
2021/10/24 08:17:05;;;;;;;6.38;4.88;;;11.60;59.60;;;;;;4977029;28;20039;-54
2021/10/24 08:19:32;;;;;;;8.32;5.40;;;11.60;59.70;;;;;;4991036;28;20113;-55
2021/10/24 08:21:58;;;;;;;7.18;5.40;;;11.60;59.80;;;;;;4992688;28;20113;-56
2021/10/24 08:24:24;;;;;;;6.45;4.63;;;11.70;59.70;;;;;;4992884;28;20085;-56
2021/10/24 08:26:51;;;;;;;6.68;5.13;;;11.60;59.70;;;;;;4993372;28;20027;-56
2021/10/24 08:29:17;;;;;;;8.85;5.03;;;11.60;59.70;;;;;;4993448;28;20113;-56
2021/10/24 08:31:48;;;;;;;7.55;4.72;;;11.60;59.70;;;;;;4993218;28;20045;-56
2021/10/24 08:34:14;;;;;;;8.90;5.25;;;11.60;59.80;;;;;;4992690;28;20121;-55
2021/10/24 08:36:40;;;;;;;9.35;5.63;;;11.60;59.70;;;;;;4993171;28;20526;-56
2021/10/24 08:39:06;;;;;;;6.95;4.68;;;11.60;59.80;;;;;;4992869;28;20125;-56
2021/10/24 08:41:32;;;;;;;6.55;4.70;;;11.70;60.00;;;;;;4993367;28;20077;-55
2021/10/24 08:44:02;;;;;;;8.32;5.32;;;11.70;60.00;;;;;;4993498;28;20022;-55
2021/10/24 08:46:28;;;;;;;9.20;5.20;;;11.70;60.00;;;;;;4992914;28;20011;-58
2021/10/24 08:48:56;;;;;;;8.60;5.13;;;11.80;59.90;;;;;;4993232;28;20029;-57
2021/10/24 08:51:25;;;;;;;9.27;4.95;;;11.80;59.80;;;;;;4984889;28;20109;-55
2021/10/24 08:53:51;;;;;;;8.68;4.80;;;11.80;60.00;;;;;;4984867;28;20485;-56
2021/10/24 08:56:19;;;;;;;7.05;5.32;;;11.90;59.90;;;;;;4993115;28;20538;-56
2021/10/24 08:58:45;;;;;;;7.20;5.07;;;11.90;59.70;;;;;;4993079;28;20019;-53
2021/10/24 09:01:12;;;;;;;11.07;5.53;;;11.90;59.90;;;;;;4993133;28;20030;-55
2021/10/24 09:03:39;;;;;;;8.52;4.88;;;11.90;59.90;;;;;;4993276;28;20031;-54
2021/10/24 09:06:07;;;;;;;7.78;5.05;;;12.00;59.90;;;;;;4992362;28;20026;-56
2021/10/24 09:08:36;;;;;;;5.78;4.80;;;12.00;59.70;;;;;;4993947;28;20031;-56
2021/10/24 09:11:02;;;;;;;7.30;5.10;;;12.00;59.80;;;;;;4996453;28;20113;-57
2021/10/24 09:13:34;;;;;;;7.75;4.65;;;12.00;60.40;;;;;;4996519;28;20027;-56
2021/10/24 09:16:03;;;;;;;9.07;5.03;;;12.00;59.80;;;;;;4989096;28;20069;-55
2021/10/24 09:18:37;;;;;;;7.22;5.60;;;12.10;60.00;;;;;;4975812;28;20536;-54
2021/10/24 09:21:29;;;;;;;7.32;5.05;;;12.10;60.00;;;;;;4979949;28;20489;-56
2021/10/24 09:24:09;;;;;;;8.07;5.05;;;12.10;59.90;;;;;;4970865;28;20047;-55
2021/10/24 09:26:34;;;;;;;8.15;5.07;;;12.10;59.90;;;;;;4996100;28;20049;-56
2021/10/24 09:29:13;;;;;;;7.25;5.10;;;12.10;60.00;;;;;;4996515;28;20018;-56
2021/10/24 09:31:50;;;;;;;8.63;5.40;;;12.10;59.90;;;;;;4986811;28;20073;-56
2021/10/24 09:34:24;;;;;;;6.53;5.03;;;12.20;59.90;;;;;;4976899;28;20101;-54
2021/10/24 09:36:56;;;;;;;6.70;4.68;;;12.20;60.60;;;;;;4977130;28;20029;-55
2021/10/24 09:39:26;;;;;;;;;;;12.30;60.10;;;;;;4978903;28;20561;-54
2021/10/24 09:42:12;;;;;;;6.68;4.60;;;12.20;59.90;;;;;;4979928;28;19914;-54
2021/10/24 09:45:05;;;;;;;7.30;5.10;;;12.30;59.90;;;;;;4995756;28;20019;-54
2021/10/24 09:47:52;;;;;;;5.68;4.25;;;12.40;59.80;;;;;;4987256;28;20022;-53
2021/10/24 09:50:29;;;;;;;6.35;4.38;;;12.40;59.70;;;;;;4976379;28;20564;-53
2021/10/24 09:53:19;;;;;;;6.47;4.75;;;12.40;59.60;;;;;;4977131;28;20542;-54
2021/10/24 09:56:01;;;;;;;5.65;4.15;;;12.40;59.80;;;;;;4976836;28;20109;-54
2021/10/24 09:58:34;;;;;;;8.15;4.10;;;12.40;59.60;;;;;;4981807;28;20057;-54
2021/10/24 10:01:00;;;;;;;5.32;4.25;;;12.40;59.60;;;;;;4996099;28;20052;-56
2021/10/24 10:03:27;;;;;;;5.35;4.38;;;12.40;59.50;;;;;;4996215;28;20027;-54
2021/10/24 10:05:57;;;;;;;6.53;4.40;;;12.40;59.50;;;;;;4995818;28;20026;-55
2021/10/24 10:08:22;;;;;;;5.25;4.03;;;12.40;59.50;;;;;;4995717;28;20381;-55
2021/10/24 10:10:54;;;;;;;5.40;4.05;;;12.40;59.40;;;;;;4995781;28;20114;-54
2021/10/24 10:13:26;;;;;;;5.60;4.13;;;12.40;59.20;;;;;;4995744;28;20037;-56
2021/10/24 10:15:53;;;;;;;5.28;4.20;;;12.40;59.00;;;;;;4993788;28;20018;-55
2021/10/24 10:18:20;;;;;;;4.50;4.03;;;12.40;59.00;;;;;;4976112;28;20094;-53
2021/10/24 10:20:48;;;;;;;6.32;3.95;;;12.30;58.90;;;;;;4993798;28;20034;-55
2021/10/24 10:23:16;;;;;;;5.28;3.92;;;12.30;58.90;;;;;;4995586;28;20026;-54
2021/10/24 10:25:44;;;;;;;6.13;4.65;;;12.20;58.90;;;;;;4995690;28;20618;-55
2021/10/24 10:28:14;;;;;;;6.18;3.92;;;12.20;59.00;;;;;;4995283;28;20029;-55
2021/10/24 10:30:42;;;;;;;5.00;3.50;;;12.20;59.20;;;;;;4995271;28;20041;-57
2021/10/24 10:33:29;;;;;;;4.25;3.42;;;12.10;59.40;;;;;;4985944;28;20062;-57
2021/10/24 10:35:56;;;;;;;2.97;2.72;;;12.10;60.10;;;;;;4995072;28;20034;-55
2021/10/24 10:38:38;;;;;;;2.85;2.58;;;12.00;60.30;;;;;;4994760;28;20027;-56
2021/10/24 10:41:15;;;;;;;3.83;2.70;;;11.90;60.70;;;;;;4994609;28;20042;-55
2021/10/24 10:44:00;;;;;;;5.13;3.10;;;11.80;61.00;;;;;;4994763;28;20297;-55
2021/10/24 10:46:29;;;;;;;3.88;2.70;;;11.80;61.40;;;;;;4994416;28;20019;-55
2021/10/24 10:48:54;;;;;;;3.78;2.90;;;11.70;61.90;;;;;;4993551;28;20463;-54
2021/10/24 10:51:28;;;;;;;3.22;2.85;;;11.70;62.10;;;;;;4994693;28;20085;-54
2021/10/24 10:54:05;;;;;;;2.60;2.33;;;11.70;62.40;;;;;;4994784;28;20044;-54
2021/10/24 10:56:47;;;;;;;3.75;2.95;;;11.70;62.60;;;;;;4994695;28;20041;-56
2021/10/24 10:59:31;;;;;;;3.80;2.80;;;11.70;62.60;;;;;;4994247;28;20062;-56
2021/10/24 11:02:23;;;;;;;2.95;2.65;;;11.70;62.50;;;;;;4994550;28;20045;-57
2021/10/24 11:04:51;;;;;;;2.80;2.53;;;11.70;62.50;;;;;;4976792;28;20030;-56
2021/10/24 11:07:41;;;;;;;3.35;2.63;;;11.80;62.50;;;;;;4993873;28;20019;-56
2021/10/24 11:10:37;;;;;;;3.40;2.70;;;11.80;62.20;;;;;;4994447;28;20387;-54
2021/10/24 11:13:22;;;;;;;3.25;2.47;;;11.90;62.20;;;;;;4994051;28;20117;-56
2021/10/24 11:15:48;;;;;;;3.22;2.90;;;12.00;62.00;;;;;;4984267;28;20027;-57
2021/10/24 11:18:31;;;;;;;3.17;2.88;;;12.00;61.80;;;;;;4974783;28;20034;-56
2021/10/24 11:20:58;;;;;;;3.33;2.60;;;12.10;61.50;;;;;;4974762;28;20038;-57
2021/10/24 11:23:29;;;;;;;4.97;2.95;;;12.10;61.50;;;;;;4976989;28;20027;-57
2021/10/24 11:25:54;;;;;;;5.60;3.40;;;12.20;61.50;;;;;;4993975;28;20053;-56
2021/10/24 11:28:26;;;;;;;4.40;3.10;;;12.10;61.50;;;;;;4993671;28;20077;-54
2021/10/24 11:31:06;;;;;;;3.15;2.75;;;12.20;61.50;;;;;;4993658;28;20509;-55
2021/10/24 11:33:45;;;;;;;3.10;2.30;;;12.20;61.00;;;;;;4977202;28;20030;-56
2021/10/24 11:36:17;;;;;;;2.63;1.90;;;12.10;60.20;;;;;;4974162;28;20045;-57
2021/10/24 11:38:43;;;;;;;1.80;1.67;;;12.00;59.90;;;;;;4974330;28;20034;-55
2021/10/24 11:41:19;;;;;;;1.83;1.73;;;11.90;59.60;;;;;;4974181;28;20401;-55
2021/10/24 11:43:45;;;;;;;2.08;1.65;;;11.90;59.70;;;;;;4974473;28;20395;-56
2021/10/24 11:46:11;;;;;;;1.40;1.30;;;11.90;59.60;;;;;;4987318;28;20030;-55
2021/10/24 11:48:37;;;;;;;1.65;1.55;;;11.80;59.40;;;;;;4993191;28;20045;-56
2021/10/24 11:51:08;;;;;;;1.25;1.20;;;11.90;59.50;;;;;;4992748;28;20022;-56
2021/10/24 11:53:38;;;;;;;1.42;1.40;;;11.90;59.40;;;;;;4974943;28;20363;-56
2021/10/24 11:56:14;;;;;;;2.22;1.50;;;11.90;59.20;;;;;;4985404;28;20060;-54
2021/10/24 12:01:29;;;;;;;1.30;1.20;;;11.90;59.20;;;;;;4993659;28;20398;-54
2021/10/24 12:04:03;;;;;;;1.67;1.30;;;11.80;59.00;;;;;;4993681;28;20018;-55
2021/10/24 12:06:51;;;;;;;1.88;1.73;;;11.90;59.00;;;;;;4993534;28;20046;-54
2021/10/24 12:09:34;;;;;;;1.90;1.70;;;11.90;59.20;;;;;;4993516;28;20022;-56
2021/10/24 12:12:34;;;;;;;1.75;1.65;;;11.90;59.20;;;;;;4993092;28;20456;-56
2021/10/24 12:15:13;;;;;;;2.58;1.95;;;11.90;59.10;;;;;;4993172;28;20026;-56
2021/10/24 12:17:40;;;;;;;2.30;1.80;;;11.90;59.10;;;;;;4993526;28;20033;-57
2021/10/24 12:20:19;;;;;;;1.90;1.80;;;11.90;59.10;;;;;;4992660;28;20018;-58
2021/10/24 12:22:50;;;;;;;1.67;1.58;;;12.00;59.20;;;;;;4993575;28;20026;-56
2021/10/24 12:25:21;;;;;;;1.85;1.73;;;12.00;59.20;;;;;;4975843;28;20378;-57
2021/10/24 12:28:09;;;;;;;2.22;2.10;;;12.00;59.40;;;;;;4990667;28;20109;-56
2021/10/24 12:30:35;;;;;;;2.95;2.10;;;12.00;59.50;;;;;;4985789;28;20042;-57
2021/10/24 12:33:25;;;;;;;2.30;2.10;;;12.00;59.50;;;;;;4991676;28;20144;-55
2021/10/24 12:35:51;;;;;;;3.25;2.05;;;12.10;59.50;;;;;;4993152;28;20031;-57
2021/10/24 12:38:18;;;;;;;2.00;1.80;;;12.00;59.60;;;;;;4992417;28;20058;-55
2021/10/24 12:40:56;;;;;;;3.08;2.78;;;12.00;59.60;;;;;;5015719;28;20050;-54
2021/10/24 12:43:23;;;;;;;2.83;2.50;;;12.00;59.80;;;;;;5013463;28;20030;-56
2021/10/24 12:45:50;;;;;;;3.67;2.40;;;12.00;59.90;;;;;;5017778;28;20029;-57
2021/10/24 12:48:17;;;;;;;3.33;2.85;;;11.90;60.10;;;;;;5029004;28;20026;-55
2021/10/24 12:50:43;;;;;;;3.63;2.78;;;11.90;60.40;;;;;;5021890;28;20022;-55
2021/10/24 12:53:16;;;;;;;3.00;2.70;;;11.90;60.90;;;;;;5011863;28;20446;-56
2021/10/24 12:55:59;;;;;;;3.20;2.90;;;11.80;61.00;;;;;;5024722;28;20029;-55
2021/10/24 12:58:24;;;;;;;3.17;2.88;;;11.70;61.20;;;;;;5025620;28;20036;-56
2021/10/24 13:00:50;;;;;;;3.47;2.70;;;11.70;61.30;;;;;;5033249;28;20025;-54
2021/10/24 13:03:16;;;;;;;2.65;2.38;;;11.60;61.40;;;;;;5021340;28;20021;-56